ADDS - METARS form results

Aviation Digital Data Service (ADDS)

Output produced by METARs form (2253 UTC 07 April 2020)
found at http://aviationweather.gov/metar/data/
 
METAR text: KJOT 072235Z AUTO 24008G18KT 10SM SCT050 27/16 A2960 RMK AO2 T02680156
Conditions at: KJOT (JOLIET , IL, US) observed 2235 UTC 07 April 2020
Temperature: 26.8°C (80°F)
Dewpoint: 15.6°C (60°F) [RH = 50%]
Pressure (altimeter): 29.60 inches Hg (1002.5 mb)
Winds: from the WSW (240 degrees) at 9 MPH (8 knots; 4.1 m/s)
gusting to 21 MPH (18 knots; 9.3 m/s)
Visibility: 10 or more miles (16+ km)
Ceiling: at least 12,000 feet AGL
Clouds: scattered clouds at 5000 feet AGL
Weather: automated observation with no human augmentation;
there may or may not be significant weather present at this time

METAR text: KJOT 072215Z AUTO 24011G18KT 10SM SCT060 27/16 A2960 RMK AO2 T02710157
Conditions at: KJOT (JOLIET , IL, US) observed 2215 UTC 07 April 2020
Temperature: 27.1°C (81°F)
Dewpoint: 15.7°C (60°F) [RH = 50%]
Pressure (altimeter): 29.60 inches Hg (1002.5 mb)
Winds: from the WSW (240 degrees) at 13 MPH (11 knots; 5.7 m/s)
gusting to 21 MPH (18 knots; 9.3 m/s)
Visibility: 10 or more miles (16+ km)
Ceiling: at least 12,000 feet AGL
Clouds: scattered clouds at 6000 feet AGL
Weather: automated observation with no human augmentation;
there may or may not be significant weather present at this time

METAR text: KJOT 072155Z AUTO 24010G19KT 10SM CLR 27/16 A2961 RMK AO2 T02720157
Conditions at: KJOT (JOLIET , IL, US) observed 2155 UTC 07 April 2020
Temperature: 27.2°C (81°F)
Dewpoint: 15.7°C (60°F) [RH = 49%]
Pressure (altimeter): 29.61 inches Hg (1002.8 mb)
Winds: from the WSW (240 degrees) at 12 MPH (10 knots; 5.1 m/s)
gusting to 22 MPH (19 knots; 9.8 m/s)
Visibility: 10 or more miles (16+ km)
Ceiling: at least 12,000 feet AGL
Clouds: sky clear below 12,000 feet AGL
Weather: automated observation with no human augmentation;
there may or may not be significant weather present at this time